createdAt,value
2024-03-04T00:00:50.650Z,16.7
2024-03-04T00:01:56.765Z,18.4
2024-03-04T00:03:02.870Z,18.1
2024-03-04T00:04:08.975Z,16.4
2024-03-04T00:05:15.080Z,17.9
2024-03-04T00:06:21.185Z,17.6
2024-03-04T00:07:27.290Z,15.1
2024-03-04T00:08:33.395Z,15.8
2024-03-04T00:09:39.500Z,16.9
2024-03-04T00:10:45.604Z,18.7
2024-03-04T00:11:51.708Z,15.5
2024-03-04T00:12:57.794Z,17.6
2024-03-04T00:14:04.154Z,17.9
2024-03-04T00:15:09.275Z,15.9
2024-03-04T00:16:15.380Z,16.9
2024-03-04T00:17:21.485Z,16.7
2024-03-04T00:18:27.590Z,18.9
2024-03-04T00:19:33.695Z,15.3
2024-03-04T00:20:39.799Z,17
2024-03-04T00:21:45.905Z,16.5
2024-03-04T00:22:52.010Z,16.5
2024-03-04T00:23:58.115Z,15.8
2024-03-04T00:25:04.220Z,16.4
2024-03-04T00:26:10.324Z,18.4
2024-03-04T00:27:16.428Z,17.4
2024-03-04T00:28:22.532Z,17
2024-03-04T00:29:28.875Z,17.2
2024-03-04T00:30:33.997Z,16.6
2024-03-04T00:31:40.103Z,16.2
2024-03-04T00:32:46.208Z,15.8
2024-03-04T00:33:52.313Z,14.8
2024-03-04T00:34:58.418Z,16.5
2024-03-04T00:36:04.523Z,18.4
2024-03-04T00:37:10.628Z,18.5
2024-03-04T00:38:16.732Z,16.9
2024-03-04T00:39:22.837Z,15.4
2024-03-04T00:40:28.943Z,17.9
2024-03-04T00:41:35.047Z,18.4
2024-03-04T00:42:41.152Z,15.8
2024-03-04T00:43:47.256Z,17.6
2024-03-04T00:44:53.597Z,18
2024-03-04T00:45:58.723Z,20.1
2024-03-04T00:47:04.828Z,18.3
2024-03-04T00:48:10.932Z,16.3
2024-03-04T00:49:17.037Z,16.1
2024-03-04T00:50:23.142Z,17
2024-03-04T00:51:29.247Z,18
2024-03-04T00:52:35.353Z,17.7
2024-03-04T00:53:41.458Z,18.9
2024-03-04T00:54:47.563Z,14.9
2024-03-04T00:55:53.668Z,17.8
2024-03-04T00:56:59.772Z,18.1
2024-03-04T00:58:05.875Z,15.7
2024-03-04T00:59:11.979Z,15.7
2024-03-04T01:00:18.318Z,18.5
2024-03-04T01:01:23.439Z,16.1
2024-03-04T01:02:29.544Z,17.5
2024-03-04T01:03:35.649Z,15.1
2024-03-04T01:04:41.754Z,17.8
2024-03-04T01:05:47.859Z,16.7
2024-03-04T01:06:53.965Z,16.9
2024-03-04T01:08:00.070Z,15.8
2024-03-04T01:09:06.174Z,17.9
2024-03-04T01:10:12.280Z,16.2
2024-03-04T01:11:18.385Z,16.7
2024-03-04T01:12:24.489Z,17.4
2024-03-04T01:13:30.593Z,17.2
2024-03-04T01:14:36.697Z,17.9
2024-03-04T01:15:43.038Z,19.7
2024-03-04T01:16:48.159Z,15.7
2024-03-04T01:17:54.264Z,18.5
2024-03-04T01:19:00.369Z,15.4
2024-03-04T01:20:06.474Z,16.8
2024-03-04T01:21:12.579Z,18.3
2024-03-04T01:22:18.684Z,18.9
2024-03-04T01:23:24.790Z,16.5
2024-03-04T01:24:30.895Z,16.9
2024-03-04T01:25:37.001Z,16.3
2024-03-04T01:26:43.105Z,13.7
2024-03-04T01:27:49.209Z,16.6
2024-03-04T01:28:55.313Z,16.5
2024-03-04T01:30:01.418Z,15.6
2024-03-04T01:31:07.758Z,16
2024-03-04T01:32:12.879Z,17.1
2024-03-04T01:33:18.985Z,15.6
2024-03-04T01:34:25.090Z,15.8
2024-03-04T01:35:31.195Z,17.2
2024-03-04T01:36:37.300Z,16.6
2024-03-04T01:37:43.404Z,19.7
2024-03-04T01:38:49.511Z,19.3
2024-03-04T01:39:55.614Z,18.1
2024-03-04T01:41:01.719Z,16.6
2024-03-04T01:42:07.825Z,17
2024-03-04T01:43:13.927Z,18
2024-03-04T01:44:20.033Z,17.4
2024-03-04T01:45:26.137Z,20.2
2024-03-04T01:46:32.479Z,18.4
2024-03-04T01:47:37.600Z,18.2
2024-03-04T01:48:43.705Z,18.2
2024-03-04T01:49:49.810Z,18.1
2024-03-04T01:50:55.915Z,18.8
2024-03-04T01:52:02.020Z,16.2
2024-03-04T01:53:08.125Z,17.4
2024-03-04T01:54:14.230Z,18.5
2024-03-04T01:55:20.336Z,17
2024-03-04T01:56:26.441Z,16.1
2024-03-04T01:57:32.546Z,17.2
2024-03-04T01:58:38.645Z,17.4
2024-03-04T01:59:44.754Z,18.5
2024-03-04T02:00:50.858Z,20.5
2024-03-04T02:01:57.199Z,19.4
2024-03-04T02:03:02.320Z,19.3
2024-03-04T02:04:08.425Z,19.9
2024-03-04T02:05:14.530Z,21.9
2024-03-04T02:06:20.635Z,21.8
2024-03-04T02:07:26.740Z,19.5
2024-03-04T02:08:32.845Z,21
2024-03-04T02:09:38.950Z,22.3
2024-03-04T02:10:45.056Z,25.7
2024-03-04T02:11:51.161Z,24.1
2024-03-04T02:12:57.266Z,26
2024-03-04T02:14:03.370Z,24.1
2024-03-04T02:15:09.474Z,27.2
2024-03-04T02:16:15.578Z,25.9
2024-03-04T02:17:21.919Z,23.9
2024-03-04T02:18:27.040Z,21.9
2024-03-04T02:19:33.145Z,19
2024-03-04T02:20:39.250Z,20.3
2024-03-04T02:21:45.355Z,20.3
2024-03-04T02:22:51.460Z,18.9
2024-03-04T02:23:57.565Z,18.4
2024-03-04T02:25:03.670Z,21.4
2024-03-04T02:26:09.776Z,17.7
2024-03-04T02:27:15.881Z,18.5
2024-03-04T02:28:21.953Z,20.1
2024-03-04T02:29:28.090Z,18.2
2024-03-04T02:30:34.194Z,20.4
2024-03-04T02:31:40.298Z,17.7
2024-03-04T02:32:46.592Z,19
2024-03-04T02:33:51.760Z,18.3
2024-03-04T02:34:57.865Z,18.1
2024-03-04T02:36:03.970Z,17.7
2024-03-04T02:37:10.075Z,18.6
2024-03-04T02:38:16.153Z,18.3
2024-03-04T02:39:22.285Z,18.3
2024-03-04T02:40:28.391Z,19.2
2024-03-04T02:41:34.496Z,18.4
2024-03-04T02:42:40.601Z,18
2024-03-04T02:43:46.706Z,18.4
2024-03-04T02:44:52.810Z,16.2
2024-03-04T02:45:58.914Z,17.3
2024-03-04T02:47:05.019Z,18.3
2024-03-04T02:48:11.361Z,18.8
2024-03-04T02:49:16.482Z,18.9
2024-03-04T02:50:22.587Z,17
2024-03-04T02:51:28.692Z,18
2024-03-04T02:52:34.797Z,18.6
2024-03-04T02:53:40.903Z,18.8
2024-03-04T02:54:47.008Z,16.7
2024-03-04T02:55:53.114Z,16.6
2024-03-04T02:56:59.219Z,18
2024-03-04T02:58:05.324Z,16
2024-03-04T02:59:11.430Z,17.7
2024-03-04T03:00:17.534Z,18.1
2024-03-04T03:01:23.638Z,18.5
2024-03-04T03:02:29.742Z,17.2
2024-03-04T03:03:36.083Z,17.1
2024-03-04T03:04:41.204Z,16.5
2024-03-04T03:05:47.311Z,19.8
2024-03-04T03:06:53.416Z,16.4
2024-03-04T03:07:59.521Z,17.5
2024-03-04T03:09:05.595Z,17.4
2024-03-04T03:10:11.732Z,21
2024-03-04T03:11:17.796Z,18.1
2024-03-04T03:12:23.903Z,18.4
2024-03-04T03:13:30.047Z,19.2
2024-03-04T03:14:36.153Z,17.4
2024-03-04T03:15:42.257Z,18.2
2024-03-04T03:16:48.361Z,22.2
2024-03-04T03:17:54.465Z,16.6
2024-03-04T03:19:00.806Z,18
2024-03-04T03:20:05.928Z,15.1
2024-03-04T03:21:12.034Z,18.5
2024-03-04T03:22:18.109Z,18.3
2024-03-04T03:23:24.244Z,17.8
2024-03-04T03:24:30.350Z,20
2024-03-04T03:25:36.455Z,18.7
2024-03-04T03:26:42.560Z,17.6
2024-03-04T03:27:48.665Z,17
2024-03-04T03:28:54.770Z,14.9
2024-03-04T03:30:00.875Z,18.2
2024-03-04T03:31:06.979Z,16.8
2024-03-04T03:32:13.083Z,15.5
2024-03-04T03:33:19.188Z,18.3
2024-03-04T03:34:25.530Z,18.9
2024-03-04T03:35:30.651Z,18
2024-03-04T03:36:36.756Z,15.6
2024-03-04T03:37:42.861Z,16.6
2024-03-04T03:38:48.966Z,17.7
2024-03-04T03:39:55.071Z,15.2
2024-03-04T03:41:01.133Z,20.1
2024-03-04T03:42:07.282Z,18.5
2024-03-04T03:43:13.387Z,16
2024-03-04T03:44:19.493Z,16.3
2024-03-04T03:45:25.598Z,16.4
2024-03-04T03:46:31.702Z,16.9
2024-03-04T03:47:37.807Z,17.6
2024-03-04T03:48:43.911Z,15.8
2024-03-04T03:49:50.252Z,19.8
2024-03-04T03:50:55.373Z,17.6
2024-03-04T03:52:01.479Z,19
2024-03-04T03:53:07.539Z,17.3
2024-03-04T03:54:13.690Z,14.9
2024-03-04T03:55:19.796Z,17.4
2024-03-04T03:56:25.901Z,14.2
2024-03-04T03:57:31.963Z,15.8
2024-03-04T03:58:38.113Z,18.9
2024-03-04T03:59:44.218Z,19.4
2024-03-04T04:00:50.324Z,17.2
2024-03-04T04:01:56.429Z,15.9
2024-03-04T04:03:02.533Z,17.7
2024-03-04T04:04:08.637Z,18.1
2024-03-04T04:05:14.978Z,15.8
2024-03-04T04:06:20.099Z,17.3
2024-03-04T04:07:26.205Z,18.5
2024-03-04T04:08:32.310Z,17.7
2024-03-04T04:09:38.415Z,15.8
2024-03-04T04:10:44.520Z,16.6
2024-03-04T04:11:50.626Z,18.7
2024-03-04T04:12:56.732Z,19.6
2024-03-04T04:14:02.837Z,21.6
2024-03-04T04:15:08.942Z,20.2
2024-03-04T04:16:15.048Z,19.7
2024-03-04T04:17:21.153Z,19.1
2024-03-04T04:18:27.257Z,18.7
2024-03-04T04:19:33.362Z,17.9
2024-03-04T04:20:39.704Z,17.6
2024-03-04T04:21:44.825Z,17.8
2024-03-04T04:22:50.931Z,18.6
2024-03-04T04:23:57.036Z,18.9
2024-03-04T04:25:03.142Z,18
2024-03-04T04:26:09.248Z,19.1
2024-03-04T04:27:14.344Z,17.5
2024-03-04T04:28:20.479Z,19.8
2024-03-04T04:29:26.583Z,18.1
2024-03-04T04:30:32.688Z,16.3
2024-03-04T04:31:39.020Z,17.7
2024-03-04T04:32:45.125Z,18.6
2024-03-04T04:33:51.231Z,18
2024-03-04T04:34:57.337Z,15.3
2024-03-04T04:36:03.443Z,15.1
2024-03-04T04:37:09.548Z,16
2024-03-04T04:38:15.654Z,19.3
2024-03-04T04:39:21.759Z,19.3
2024-03-04T04:40:27.865Z,21.8
2024-03-04T04:41:32.987Z,18.4
2024-03-04T04:42:39.092Z,17.8
2024-03-04T04:43:45.197Z,20.3
2024-03-04T04:44:51.301Z,17.4
2024-03-04T04:45:57.406Z,19.3
2024-03-04T04:47:03.748Z,18
2024-03-04T04:48:09.854Z,18.4
2024-03-04T04:49:15.960Z,18.8
2024-03-04T04:50:22.066Z,18.4
2024-03-04T04:51:28.172Z,16.8
2024-03-04T04:52:34.277Z,18.1
2024-03-04T04:53:40.383Z,19.7
2024-03-04T04:54:46.489Z,20.9
2024-03-04T04:55:51.611Z,17.9
2024-03-04T04:56:57.716Z,17.7
2024-03-04T04:58:03.820Z,18.6
2024-03-04T04:59:09.925Z,15.6
2024-03-04T05:00:16.030Z,17.2
2024-03-04T05:01:22.370Z,18.3
2024-03-04T05:02:28.476Z,17.4
2024-03-04T05:03:34.581Z,16.8
2024-03-04T05:04:40.687Z,17.6
2024-03-04T05:05:46.792Z,17.5
2024-03-04T05:06:52.898Z,19
2024-03-04T05:07:59.004Z,18.4
2024-03-04T05:09:05.109Z,17.8
2024-03-04T05:10:10.409Z,18.6
2024-03-04T05:11:16.514Z,14.7
2024-03-04T05:12:22.620Z,18.2
2024-03-04T05:13:28.725Z,17.7
2024-03-04T05:14:34.831Z,14.6
2024-03-04T05:15:40.937Z,16.6
2024-03-04T05:16:47.042Z,15.5
2024-03-04T05:17:53.291Z,17.3
2024-03-04T05:18:59.396Z,17
2024-03-04T05:20:05.719Z,19
2024-03-04T05:21:11.824Z,17.1
2024-03-04T05:22:17.930Z,16.2
2024-03-04T05:23:24.233Z,16.4
2024-03-04T05:24:30.337Z,16.8
2024-03-04T05:25:35.569Z,17.1
2024-03-04T05:26:41.675Z,18.1
2024-03-04T05:27:47.841Z,18.9
2024-03-04T05:28:53.996Z,16.1
2024-03-04T05:30:00.102Z,16.9
2024-03-04T05:31:06.268Z,18.9
2024-03-04T05:32:12.422Z,18.2
2024-03-04T05:33:18.528Z,19
2024-03-04T05:34:24.695Z,19.4
2024-03-04T05:35:30.849Z,19.4
2024-03-04T05:36:36.955Z,18.6
2024-03-04T05:37:43.122Z,19.3
2024-03-04T05:38:49.276Z,18.2
2024-03-04T05:39:54.397Z,18.4
2024-03-04T05:41:00.503Z,16.9
2024-03-04T05:42:06.609Z,16
2024-03-04T05:43:12.714Z,19
2024-03-04T05:44:18.828Z,17
2024-03-04T05:45:24.983Z,16.9
2024-03-04T05:46:31.089Z,17.5
2024-03-04T05:47:37.220Z,17.9
2024-03-04T05:48:43.410Z,21.1
2024-03-04T05:49:49.515Z,19.5
2024-03-04T05:50:55.682Z,16.8
2024-03-04T05:52:01.837Z,19.9
2024-03-04T05:53:07.942Z,18.8
2024-03-04T05:54:13.064Z,19.9
2024-03-04T05:55:19.170Z,17.8
2024-03-04T05:56:25.276Z,17.3
2024-03-04T05:57:31.390Z,19.6
2024-03-04T05:58:37.544Z,17.4
2024-03-04T05:59:43.650Z,18.7
2024-03-04T06:00:49.817Z,15.7
2024-03-04T06:01:55.972Z,18.7
2024-03-04T06:03:02.077Z,20.9
2024-03-04T06:04:08.244Z,17.2
2024-03-04T06:05:14.399Z,16.9
2024-03-04T06:06:20.505Z,19.3
2024-03-04T06:07:26.672Z,19.4
2024-03-04T06:08:31.793Z,18.4
2024-03-04T06:09:37.899Z,19.6
2024-03-04T06:10:43.961Z,19.5
2024-03-04T06:11:50.111Z,18
2024-03-04T06:12:56.216Z,21.5
2024-03-04T06:14:02.380Z,20.8
2024-03-04T06:15:08.534Z,19.3
2024-03-04T06:16:14.640Z,19.7
2024-03-04T06:17:20.807Z,19.5
2024-03-04T06:18:26.962Z,19.9
2024-03-04T06:19:33.067Z,19.7
2024-03-04T06:20:39.234Z,18.7
2024-03-04T06:21:45.389Z,22.2
2024-03-04T06:22:50.511Z,21.4
2024-03-04T06:23:56.617Z,21.7
2024-03-04T06:25:02.722Z,17.8
2024-03-04T06:26:08.828Z,23.9
2024-03-04T06:27:14.942Z,27.6
2024-03-04T06:28:21.097Z,38.8
2024-03-04T06:29:27.203Z,30
2024-03-04T06:30:33.369Z,33.6
2024-03-04T06:31:39.524Z,34
2024-03-04T06:32:45.631Z,35.5
2024-03-04T06:33:51.798Z,35.3
2024-03-04T06:34:57.953Z,38.6
2024-03-04T06:36:04.059Z,35.7
2024-03-04T06:37:09.181Z,33.6
2024-03-04T06:38:15.287Z,29.8
2024-03-04T06:39:21.392Z,26.2
2024-03-04T06:40:27.506Z,26.9
2024-03-04T06:41:33.616Z,26.2
2024-03-04T06:42:39.767Z,32.9
2024-03-04T06:43:45.934Z,28.1
2024-03-04T06:44:52.088Z,27.5
2024-03-04T06:45:58.194Z,24.7
2024-03-04T06:47:04.332Z,24
2024-03-04T06:48:10.516Z,24
2024-03-04T06:49:16.622Z,24.6
2024-03-04T06:50:22.789Z,24.2
2024-03-04T06:51:27.910Z,24.6
2024-03-04T06:52:34.016Z,30.4
2024-03-04T06:53:40.091Z,34.5
2024-03-04T06:54:46.227Z,23.8
2024-03-04T06:55:52.333Z,23.8
2024-03-04T06:56:58.496Z,23.9
2024-03-04T06:58:04.651Z,22.6
2024-03-04T06:59:10.756Z,21.7
2024-03-04T07:00:16.923Z,23
2024-03-04T07:01:23.078Z,23.3
2024-03-04T07:02:29.183Z,20.5
2024-03-04T07:03:35.350Z,23.7
2024-03-04T07:04:41.505Z,22.1
2024-03-04T07:05:46.626Z,26.9
2024-03-04T07:06:52.732Z,22.7
2024-03-04T07:07:58.837Z,24.6
2024-03-04T07:09:04.944Z,23.3
2024-03-04T07:10:11.057Z,19.3
2024-03-04T07:11:17.212Z,20.5
2024-03-04T07:12:23.317Z,21
2024-03-04T07:13:29.484Z,20.1
2024-03-04T07:14:35.638Z,22.9
2024-03-04T07:15:41.743Z,22.5
2024-03-04T07:16:47.910Z,23
2024-03-04T07:17:54.064Z,20.6
2024-03-04T07:19:00.169Z,20.6
2024-03-04T07:20:05.291Z,24.6
2024-03-04T07:21:11.396Z,22.9
2024-03-04T07:22:17.502Z,22
2024-03-04T07:23:23.615Z,27.8
2024-03-04T07:24:29.769Z,23.2
2024-03-04T07:25:35.875Z,23.8
2024-03-04T07:26:42.041Z,26.8
2024-03-04T07:27:48.196Z,22.1
2024-03-04T07:28:54.301Z,22.1
2024-03-04T07:30:00.468Z,21.2
2024-03-04T07:31:06.622Z,22.7
2024-03-04T07:32:12.728Z,21.6
2024-03-04T07:33:18.894Z,19.1
2024-03-04T07:34:24.016Z,22.9
2024-03-04T07:35:30.121Z,21.5
2024-03-04T07:36:36.226Z,24.3
2024-03-04T07:37:42.332Z,22.2
2024-03-04T07:38:48.437Z,23.7
2024-03-04T07:39:54.600Z,24.1
2024-03-04T07:41:00.754Z,21.3
2024-03-04T07:42:06.859Z,28.1
2024-03-04T07:43:13.025Z,22.9
2024-03-04T07:44:19.180Z,21.8
2024-03-04T07:45:25.286Z,21.2
2024-03-04T07:46:31.453Z,21
2024-03-04T07:47:37.607Z,22.5
2024-03-04T07:48:42.728Z,22.8
2024-03-04T07:49:48.834Z,21.4
2024-03-04T07:50:54.939Z,26.8
2024-03-04T07:52:01.044Z,24.1
2024-03-04T07:53:07.157Z,22.9
2024-03-04T07:54:13.312Z,24.3
2024-03-04T07:55:19.417Z,23.7
2024-03-04T07:56:25.583Z,22.6
2024-03-04T07:57:31.737Z,24.2
2024-03-04T07:58:37.843Z,23.8
2024-03-04T07:59:44.009Z,26.4
2024-03-04T08:00:50.163Z,26.7
2024-03-04T08:01:56.269Z,22.2
2024-03-04T08:03:01.390Z,33.5
2024-03-04T08:04:07.495Z,27.1
2024-03-04T08:05:13.601Z,30.2
2024-03-04T08:06:19.714Z,20.7
2024-03-04T08:07:25.868Z,31.6
2024-03-04T08:08:30.994Z,25.9
2024-03-04T08:09:37.099Z,26
2024-03-04T08:10:43.205Z,25.9
2024-03-04T08:11:49.310Z,23.1
2024-03-04T08:12:55.418Z,23.3
2024-03-04T08:14:01.572Z,25.5
2024-03-04T08:15:07.677Z,22.2
2024-03-04T08:16:13.843Z,34.4
2024-03-04T08:17:19.998Z,30.1
2024-03-04T08:18:26.103Z,25.7
2024-03-04T08:19:32.269Z,23.2
2024-03-04T08:20:38.423Z,21.1
2024-03-04T08:21:44.529Z,41.5
2024-03-04T08:22:49.650Z,23.2
2024-03-04T08:23:55.755Z,20.2
2024-03-04T08:25:01.860Z,30.6
2024-03-04T08:26:07.974Z,21.5
2024-03-04T08:27:14.128Z,21.1
2024-03-04T08:28:20.233Z,21.4
2024-03-04T08:29:26.399Z,23.1
2024-03-04T08:30:32.554Z,21.6
2024-03-04T08:31:38.659Z,30.9
2024-03-04T08:32:44.826Z,19.2
2024-03-04T08:33:50.980Z,19
2024-03-04T08:34:57.085Z,16
2024-03-04T08:36:03.252Z,19.7
2024-03-04T08:37:08.373Z,18.4
2024-03-04T08:38:14.478Z,16.7
2024-03-04T08:39:20.583Z,20.9
2024-03-04T08:40:26.690Z,17.7
2024-03-04T08:41:32.795Z,21
2024-03-04T08:42:38.958Z,19.1
2024-03-04T08:43:45.113Z,18.7
2024-03-04T08:44:51.218Z,15.5
2024-03-04T08:45:57.384Z,19.8
2024-03-04T08:47:03.539Z,17.5
2024-03-04T08:48:09.644Z,16.8
2024-03-04T08:49:15.810Z,16.9
2024-03-04T08:50:21.964Z,17.3
2024-03-04T08:51:27.085Z,16.6
2024-03-04T08:52:33.192Z,22.3
2024-03-04T08:53:39.297Z,17.8
2024-03-04T08:54:45.403Z,20
2024-03-04T08:55:51.516Z,19.1
2024-03-04T08:56:57.670Z,22.9
2024-03-04T08:58:03.732Z,22.3
2024-03-04T08:59:09.942Z,17.2
2024-03-04T09:00:16.096Z,17.2
2024-03-04T09:01:22.201Z,20.1
2024-03-04T09:02:28.367Z,16.9
2024-03-04T09:03:34.521Z,19.5
2024-03-04T09:04:40.627Z,18.6
2024-03-04T09:05:46.793Z,18.1
2024-03-04T09:06:51.914Z,20.8
2024-03-04T09:07:58.019Z,19.6
2024-03-04T09:09:04.125Z,19.3
2024-03-04T09:10:10.230Z,20.1
2024-03-04T09:11:16.336Z,23.5
2024-03-04T09:12:22.498Z,18
2024-03-04T09:13:28.653Z,19.3
2024-03-04T09:14:34.758Z,22.6
2024-03-04T09:15:40.925Z,19
2024-03-04T09:16:47.079Z,20.2
2024-03-04T09:17:53.184Z,22.7
2024-03-04T09:18:59.352Z,20.9
2024-03-04T09:20:05.506Z,22.5
2024-03-04T09:21:10.627Z,18.9
2024-03-04T09:22:16.733Z,20
2024-03-04T09:23:22.838Z,19.7
2024-03-04T09:24:28.944Z,21.6
2024-03-04T09:25:35.057Z,22.2
2024-03-04T09:26:41.212Z,22.5
2024-03-04T09:27:47.317Z,18.2
2024-03-04T09:28:53.484Z,18.5
2024-03-04T09:29:59.638Z,21.7
2024-03-04T09:31:05.743Z,22.3
2024-03-04T09:32:11.909Z,25.5
2024-03-04T09:33:18.064Z,21
2024-03-04T09:34:24.169Z,17.5
2024-03-04T09:35:29.290Z,19.2
2024-03-04T09:36:35.396Z,21.3
2024-03-04T09:37:41.501Z,22.9
2024-03-04T09:38:47.615Z,20
2024-03-04T09:39:53.769Z,22
2024-03-04T09:40:59.874Z,19.6
2024-03-04T09:42:06.041Z,21.5
2024-03-04T09:43:12.195Z,24.5
2024-03-04T09:44:18.266Z,24.2
2024-03-04T09:45:24.467Z,19.9
2024-03-04T09:46:30.621Z,19.6
2024-03-04T09:48:42.853Z,19.9
2024-03-04T09:49:48.014Z,20.1
2024-03-04T09:50:54.120Z,20.1
2024-03-04T09:52:00.225Z,19.1
2024-03-04T09:53:06.330Z,20.1
2024-03-04T09:54:12.435Z,19.5
2024-03-04T09:55:18.598Z,21.5
2024-03-04T09:56:24.753Z,20.6
2024-03-04T09:57:30.858Z,19.9
2024-03-04T09:58:37.025Z,23
2024-03-04T09:59:43.179Z,21.4
2024-03-04T10:00:49.284Z,21.7
2024-03-04T10:01:55.452Z,26.5
2024-03-04T10:03:01.606Z,22.1
2024-03-04T10:04:06.727Z,18.1
2024-03-04T10:05:12.833Z,22.5
2024-03-04T10:06:18.939Z,23.7
2024-03-04T10:07:25.044Z,25.5
2024-03-04T10:08:31.157Z,23.6
2024-03-04T10:09:37.312Z,22.8
2024-03-04T10:10:43.417Z,20.9
2024-03-04T10:11:49.583Z,20.5
2024-03-04T10:12:55.738Z,19.5
2024-03-04T10:14:01.843Z,25.2
2024-03-04T10:15:08.010Z,21.7
2024-03-04T10:16:14.164Z,20.2
2024-03-04T10:17:20.269Z,21.4
2024-03-04T10:18:25.390Z,18.4
2024-03-04T10:19:31.496Z,20.7
2024-03-04T10:20:37.601Z,23.4
2024-03-04T10:21:43.715Z,20
2024-03-04T10:22:49.869Z,23.3
2024-03-04T10:23:55.974Z,20.6
2024-03-04T10:25:02.141Z,21.8
2024-03-04T10:26:08.295Z,23.3
2024-03-04T10:27:14.401Z,20.8
2024-03-04T10:28:20.532Z,21.2
2024-03-04T10:29:26.721Z,21.1
2024-03-04T10:30:32.826Z,21.9
2024-03-04T10:31:38.993Z,24.5
2024-03-04T10:32:44.114Z,21.8
2024-03-04T10:33:50.184Z,19.4
2024-03-04T10:34:56.298Z,23
2024-03-04T10:36:02.430Z,20.3
2024-03-04T10:37:08.535Z,22.9
2024-03-04T10:38:14.673Z,23
2024-03-04T10:39:20.852Z,22.2
2024-03-04T10:40:26.957Z,22.3
2024-03-04T10:41:33.123Z,20
2024-03-04T10:42:39.278Z,24
2024-03-04T10:43:45.383Z,24.1
2024-03-04T10:44:51.549Z,25.3
2024-03-04T10:45:57.704Z,24.9
2024-03-04T10:47:02.826Z,23.7
2024-03-04T10:48:08.932Z,24.4
2024-03-04T10:49:15.037Z,26.6
2024-03-04T10:50:21.142Z,25.5
2024-03-04T10:51:27.255Z,22.1
2024-03-04T10:52:33.409Z,27.9
2024-03-04T10:53:39.515Z,29.3
2024-03-04T10:54:45.682Z,23.4
2024-03-04T10:55:51.836Z,24.6
2024-03-04T10:56:57.942Z,24.8
2024-03-04T10:58:04.108Z,25.7
2024-03-04T10:59:10.262Z,26.3
2024-03-04T11:00:16.367Z,29.7
2024-03-04T11:01:21.488Z,25.1
2024-03-04T11:02:27.593Z,25.7
2024-03-04T11:03:33.699Z,26.4
2024-03-04T11:04:39.812Z,25.5
2024-03-04T11:05:45.966Z,26.7
2024-03-04T11:06:52.071Z,29.6
2024-03-04T11:07:58.237Z,29
2024-03-04T11:09:04.392Z,27
2024-03-04T11:10:10.497Z,26.5
2024-03-04T11:11:16.663Z,30.4
2024-03-04T11:12:22.818Z,26.9
2024-03-04T11:13:28.923Z,30.2
2024-03-04T11:14:35.089Z,29
2024-03-04T11:15:40.211Z,29.7
2024-03-04T11:16:46.316Z,27.8
2024-03-04T11:17:52.421Z,27.8
2024-03-04T11:18:58.526Z,28.9
2024-03-04T11:20:04.631Z,28
2024-03-04T11:21:10.794Z,28.4
2024-03-04T11:22:16.948Z,30.8
2024-03-04T11:23:23.053Z,29
2024-03-04T11:24:29.219Z,28.7
2024-03-04T11:25:35.374Z,33.8
2024-03-04T11:26:41.478Z,31.4
2024-03-04T11:27:47.645Z,31.7
2024-03-04T11:28:53.799Z,29.4
2024-03-04T11:29:58.920Z,31.7
2024-03-04T11:31:05.025Z,31.9
2024-03-04T11:32:11.131Z,33.1
2024-03-04T11:33:17.236Z,32.3
2024-03-04T11:34:23.349Z,32
2024-03-04T11:35:29.503Z,35.5
2024-03-04T11:36:35.609Z,34.1
2024-03-04T11:37:41.774Z,36
2024-03-04T11:38:47.928Z,34.8
2024-03-04T11:39:54.033Z,34.7
2024-03-04T11:41:00.199Z,34.2
2024-03-04T11:42:06.353Z,33.7
2024-03-04T11:43:12.432Z,31.1
2024-03-04T11:44:17.579Z,33
2024-03-04T11:45:23.684Z,33.4
2024-03-04T11:46:29.789Z,31.5
2024-03-04T11:47:35.902Z,35.4
2024-03-04T11:48:42.022Z,38.3
2024-03-04T11:49:47.182Z,36.7
2024-03-04T11:50:53.288Z,37
2024-03-04T11:51:59.394Z,35.1
2024-03-04T11:53:05.499Z,31.9
2024-03-04T11:54:11.607Z,31.7
2024-03-04T11:55:17.761Z,34.9
2024-03-04T11:56:23.866Z,34.9
2024-03-04T11:57:30.032Z,37
2024-03-04T11:58:36.186Z,36.7
2024-03-04T11:59:42.291Z,36.8
2024-03-04T12:00:48.458Z,35.7
2024-03-04T12:01:54.612Z,35.8
2024-03-04T12:03:00.694Z,34.8
2024-03-04T12:04:05.838Z,33.9
2024-03-04T12:05:11.943Z,32.6
2024-03-04T12:06:18.048Z,37.1
2024-03-04T12:07:24.162Z,35.2
2024-03-04T12:08:30.316Z,37.4
2024-03-04T12:09:36.421Z,37.8
2024-03-04T12:10:42.587Z,38.9
2024-03-04T12:11:48.741Z,37.7
2024-03-04T12:12:54.846Z,39
2024-03-04T12:14:01.012Z,34.6
2024-03-04T12:15:07.166Z,34.6
2024-03-04T12:16:13.272Z,36.8
2024-03-04T12:17:19.438Z,37.4
2024-03-04T12:18:24.559Z,38.1
2024-03-04T12:19:30.664Z,40.2
2024-03-04T12:20:36.769Z,39.2
2024-03-04T12:21:42.874Z,42
2024-03-04T12:22:48.979Z,38.9
2024-03-04T12:23:55.140Z,36.6
2024-03-04T12:25:01.295Z,40.3
2024-03-04T12:26:07.400Z,38.8
2024-03-04T12:27:13.565Z,39.4
2024-03-04T12:28:19.720Z,39.2
2024-03-04T12:29:25.825Z,33.2
2024-03-04T12:30:31.990Z,31.8
2024-03-04T12:31:38.144Z,31.4
2024-03-04T12:32:43.265Z,30.9
2024-03-04T12:33:49.370Z,28.5
2024-03-04T12:34:55.475Z,29.6
2024-03-04T12:36:01.580Z,27.9
2024-03-04T12:37:07.694Z,33.1
2024-03-04T12:38:13.848Z,33
2024-03-04T12:39:19.953Z,31.2
2024-03-04T12:40:26.119Z,34
2024-03-04T12:41:32.273Z,29.7
2024-03-04T12:42:38.378Z,31.5
2024-03-04T12:43:44.544Z,30
2024-03-04T12:44:50.698Z,29.7
2024-03-04T12:45:56.803Z,29.7
2024-03-04T12:47:01.924Z,30.9
2024-03-04T12:48:08.029Z,27.2
2024-03-04T12:49:14.134Z,28.6
2024-03-04T12:50:20.247Z,29.5
2024-03-04T12:51:26.401Z,29.8
2024-03-04T12:52:32.506Z,28.4
2024-03-04T12:53:38.645Z,29
2024-03-04T12:54:44.826Z,29
2024-03-04T12:55:50.931Z,28.7
2024-03-04T12:56:57.097Z,30.4
2024-03-04T12:58:03.251Z,27.7
2024-03-04T12:59:09.328Z,26
2024-03-04T13:00:15.522Z,27.3
2024-03-04T13:01:20.643Z,24.6
2024-03-04T13:02:26.748Z,27.6
2024-03-04T13:03:32.853Z,27.1
2024-03-04T13:04:38.958Z,27.2
2024-03-04T13:05:45.062Z,25.9
2024-03-04T13:06:51.224Z,27.5
2024-03-04T13:07:57.378Z,26.6
2024-03-04T13:09:03.483Z,27.9
2024-03-04T13:10:09.649Z,29.1
2024-03-04T13:11:15.803Z,28.5
2024-03-04T13:12:21.880Z,27.1
2024-03-04T13:13:28.074Z,27.5
2024-03-04T13:14:34.228Z,26.6
2024-03-04T13:15:39.349Z,25.3
2024-03-04T13:16:45.455Z,26.5
2024-03-04T13:17:51.561Z,26.9
2024-03-04T13:18:57.666Z,25.3
2024-03-04T13:20:03.779Z,24.8
2024-03-04T13:21:09.933Z,25
2024-03-04T13:22:16.011Z,24.9
2024-03-04T13:23:22.204Z,25.1
2024-03-04T13:24:28.359Z,25.3
2024-03-04T13:25:34.463Z,23.8
2024-03-04T13:26:40.596Z,24
2024-03-04T13:27:46.783Z,29.3
2024-03-04T13:28:52.888Z,26
2024-03-04T13:29:58.009Z,24.3
2024-03-04T13:31:04.114Z,26.5
2024-03-04T13:32:10.219Z,26
2024-03-04T13:33:16.332Z,26.2
2024-03-04T13:34:22.486Z,23.9
2024-03-04T13:35:28.591Z,24.6
2024-03-04T13:36:34.758Z,23.8
2024-03-04T13:37:40.911Z,27.2
2024-03-04T13:38:47.016Z,27.2
2024-03-04T13:39:53.182Z,24.8
2024-03-04T13:40:59.336Z,24.2
2024-03-04T13:42:05.441Z,22.1
2024-03-04T13:43:11.607Z,22.4
2024-03-04T13:44:16.728Z,24.3
2024-03-04T13:45:22.833Z,24.9
2024-03-04T13:46:28.938Z,27
2024-03-04T13:47:35.043Z,22.9
2024-03-04T13:48:41.147Z,25.1
2024-03-04T13:49:47.311Z,24.5
2024-03-04T13:50:53.464Z,22.5
2024-03-04T13:51:59.569Z,22.8
2024-03-04T13:53:05.735Z,24.7
2024-03-04T13:54:11.889Z,22.1
2024-03-04T13:55:17.994Z,22.1
2024-03-04T13:56:24.160Z,24.5
2024-03-04T13:57:30.314Z,24.5
2024-03-04T13:58:35.435Z,23.6
2024-03-04T13:59:41.540Z,24.3
2024-03-04T14:00:47.645Z,23.7
2024-03-04T14:01:53.750Z,24.2
2024-03-04T14:02:59.863Z,24.6
2024-03-04T14:04:06.017Z,23.6
2024-03-04T14:05:12.122Z,20.7
2024-03-04T14:06:18.288Z,21.8
2024-03-04T14:07:24.442Z,21.8
2024-03-04T14:08:30.546Z,21.3
2024-03-04T14:09:36.713Z,23.3
2024-03-04T14:10:42.867Z,23.2
2024-03-04T14:11:48.972Z,23.6
2024-03-04T14:12:54.093Z,27
2024-03-04T14:14:00.198Z,24.5
2024-03-04T14:15:06.303Z,21.2
2024-03-04T14:16:12.392Z,20.3
2024-03-04T14:17:18.569Z,20.7
2024-03-04T14:18:24.674Z,19.5
2024-03-04T14:19:30.840Z,21.7
2024-03-04T14:20:36.994Z,21.3
2024-03-04T14:21:43.099Z,20.2
2024-03-04T14:22:49.265Z,23.7
2024-03-04T14:23:55.419Z,21.8
2024-03-04T14:25:01.524Z,23.8
2024-03-04T14:26:07.690Z,23.2
2024-03-04T14:27:12.811Z,23.7
2024-03-04T14:28:18.916Z,21.1
2024-03-04T14:29:25.021Z,21.7
2024-03-04T14:30:31.127Z,23
2024-03-04T14:31:37.232Z,21.7
2024-03-04T14:32:43.394Z,22.1
2024-03-04T14:33:49.548Z,20.9
2024-03-04T14:34:55.653Z,22.6
2024-03-04T14:36:01.819Z,23.6
2024-03-04T14:37:07.972Z,20.8
2024-03-04T14:38:14.077Z,20.1
2024-03-04T14:39:20.244Z,21.1
2024-03-04T14:40:26.398Z,22.5
2024-03-04T14:41:31.518Z,22.1
2024-03-04T14:42:37.623Z,21.1
2024-03-04T14:43:43.699Z,20.5
2024-03-04T14:44:49.834Z,20.2
2024-03-04T14:45:55.946Z,22.4
2024-03-04T14:47:02.100Z,23.1